sensor_id;sensor_type;location;lat;lon;timestamp;P1;durP1;ratioP1;P2;durP2;ratioP2
22949;SDS011;11641;51.018;4.474;2023-02-22T00:01:27;215.07;;;32.33;;
22949;SDS011;11641;51.018;4.474;2023-02-22T00:04:01;88.47;;;26.38;;
22949;SDS011;11641;51.018;4.474;2023-02-22T00:06:27;130.93;;;29.27;;
22949;SDS011;11641;51.018;4.474;2023-02-22T00:08:55;109.78;;;27.10;;
22949;SDS011;11641;51.018;4.474;2023-02-22T00:11:21;120.15;;;27.83;;
22949;SDS011;11641;51.018;4.474;2023-02-22T00:13:47;335.83;;;33.67;;
22949;SDS011;11641;51.018;4.474;2023-02-22T00:16:19;335.27;;;31.90;;
22949;SDS011;11641;51.018;4.474;2023-02-22T00:18:46;181.40;;;28.92;;
22949;SDS011;11641;51.018;4.474;2023-02-22T00:21:13;174.73;;;29.50;;
22949;SDS011;11641;51.018;4.474;2023-02-22T00:23:44;149.15;;;28.38;;
22949;SDS011;11641;51.018;4.474;2023-02-22T00:26:14;105.50;;;26.85;;
22949;SDS011;11641;51.018;4.474;2023-02-22T00:28:45;218.35;;;29.17;;
22949;SDS011;11641;51.018;4.474;2023-02-22T00:31:13;117.90;;;26.48;;
22949;SDS011;11641;51.018;4.474;2023-02-22T00:33:39;279.33;;;30.55;;
22949;SDS011;11641;51.018;4.474;2023-02-22T00:36:05;320.13;;;30.40;;
22949;SDS011;11641;51.018;4.474;2023-02-22T00:38:34;167.70;;;27.23;;
22949;SDS011;11641;51.018;4.474;2023-02-22T00:41:00;178.35;;;28.38;;
22949;SDS011;11641;51.018;4.474;2023-02-22T00:43:26;260.80;;;30.73;;
22949;SDS011;11641;51.018;4.474;2023-02-22T00:45:51;287.48;;;31.25;;
22949;SDS011;11641;51.018;4.474;2023-02-22T00:48:18;95.00;;;24.60;;
22949;SDS011;11641;51.018;4.474;2023-02-22T00:50:46;188.05;;;30.08;;
22949;SDS011;11641;51.018;4.474;2023-02-22T00:53:12;220.10;;;28.92;;
22949;SDS011;11641;51.018;4.474;2023-02-22T00:55:39;310.52;;;32.67;;
22949;SDS011;11641;51.018;4.474;2023-02-22T00:58:05;311.75;;;32.30;;
22949;SDS011;11641;51.018;4.474;2023-02-22T01:02:57;300.80;;;32.22;;
22949;SDS011;11641;51.018;4.474;2023-02-22T01:05:24;434.60;;;35.80;;
22949;SDS011;11641;51.018;4.474;2023-02-22T01:07:52;185.63;;;28.77;;
22949;SDS011;11641;51.018;4.474;2023-02-22T01:10:20;76.75;;;24.95;;
22949;SDS011;11641;51.018;4.474;2023-02-22T01:12:47;259.85;;;32.35;;
22949;SDS011;11641;51.018;4.474;2023-02-22T01:15:14;258.52;;;31.35;;
22949;SDS011;11641;51.018;4.474;2023-02-22T01:17:41;296.00;;;31.70;;
22949;SDS011;11641;51.018;4.474;2023-02-22T01:20:08;114.72;;;28.05;;
22949;SDS011;11641;51.018;4.474;2023-02-22T01:22:38;116.20;;;28.05;;
22949;SDS011;11641;51.018;4.474;2023-02-22T01:25:06;280.65;;;31.77;;
22949;SDS011;11641;51.018;4.474;2023-02-22T01:27:33;152.23;;;29.08;;
22949;SDS011;11641;51.018;4.474;2023-02-22T01:29:59;134.15;;;27.85;;
22949;SDS011;11641;51.018;4.474;2023-02-22T01:32:25;227.50;;;30.08;;
22949;SDS011;11641;51.018;4.474;2023-02-22T01:34:52;174.18;;;28.60;;
22949;SDS011;11641;51.018;4.474;2023-02-22T01:37:19;199.88;;;29.05;;
22949;SDS011;11641;51.018;4.474;2023-02-22T01:39:44;129.77;;;25.73;;
22949;SDS011;11641;51.018;4.474;2023-02-22T01:42:11;443.52;;;35.92;;
22949;SDS011;11641;51.018;4.474;2023-02-22T01:44:37;192.00;;;26.40;;
22949;SDS011;11641;51.018;4.474;2023-02-22T01:47:06;254.32;;;28.65;;
22949;SDS011;11641;51.018;4.474;2023-02-22T01:49:43;391.15;;;32.30;;
22949;SDS011;11641;51.018;4.474;2023-02-22T01:52:13;205.50;;;28.30;;
22949;SDS011;11641;51.018;4.474;2023-02-22T01:54:49;383.20;;;32.92;;
22949;SDS011;11641;51.018;4.474;2023-02-22T01:57:22;318.13;;;30.33;;
22949;SDS011;11641;51.018;4.474;2023-02-22T01:59:52;383.70;;;32.80;;
22949;SDS011;11641;51.018;4.474;2023-02-22T02:02:20;218.63;;;30.02;;
22949;SDS011;11641;51.018;4.474;2023-02-22T02:04:49;361.17;;;31.67;;
22949;SDS011;11641;51.018;4.474;2023-02-22T02:07:20;205.55;;;27.63;;
22949;SDS011;11641;51.018;4.474;2023-02-22T02:09:53;341.88;;;34.05;;
22949;SDS011;11641;51.018;4.474;2023-02-22T02:12:26;430.30;;;34.92;;
22949;SDS011;11641;51.018;4.474;2023-02-22T02:15:15;147.73;;;25.70;;
22949;SDS011;11641;51.018;4.474;2023-02-22T02:17:45;196.60;;;26.15;;
22949;SDS011;11641;51.018;4.474;2023-02-22T02:20:16;249.57;;;27.13;;
22949;SDS011;11641;51.018;4.474;2023-02-22T02:42:59;275.17;;;27.20;;
22949;SDS011;11641;51.018;4.474;2023-02-22T02:45:42;346.30;;;30.23;;
22949;SDS011;11641;51.018;4.474;2023-02-22T02:48:20;160.35;;;25.85;;
22949;SDS011;11641;51.018;4.474;2023-02-22T02:50:49;168.25;;;27.25;;
22949;SDS011;11641;51.018;4.474;2023-02-22T02:53:18;220.90;;;28.73;;
22949;SDS011;11641;51.018;4.474;2023-02-22T02:55:47;128.70;;;25.35;;
22949;SDS011;11641;51.018;4.474;2023-02-22T02:58:19;134.80;;;25.85;;
22949;SDS011;11641;51.018;4.474;2023-02-22T03:00:47;78.65;;;23.75;;
22949;SDS011;11641;51.018;4.474;2023-02-22T03:09:01;167.10;;;27.08;;
22949;SDS011;11641;51.018;4.474;2023-02-22T03:11:48;184.00;;;29.77;;
22949;SDS011;11641;51.018;4.474;2023-02-22T03:17:25;182.32;;;27.42;;
22949;SDS011;11641;51.018;4.474;2023-02-22T03:22:39;135.57;;;26.27;;
22949;SDS011;11641;51.018;4.474;2023-02-22T03:25:19;236.30;;;29.90;;
22949;SDS011;11641;51.018;4.474;2023-02-22T03:30:25;96.85;;;25.15;;
22949;SDS011;11641;51.018;4.474;2023-02-22T03:32:53;137.40;;;25.65;;
22949;SDS011;11641;51.018;4.474;2023-02-22T03:37:57;91.07;;;23.73;;
22949;SDS011;11641;51.018;4.474;2023-02-22T03:40:29;93.03;;;23.55;;
22949;SDS011;11641;51.018;4.474;2023-02-22T03:43:01;88.88;;;23.85;;
22949;SDS011;11641;51.018;4.474;2023-02-22T03:45:33;71.47;;;22.42;;
22949;SDS011;11641;51.018;4.474;2023-02-22T03:48:24;132.88;;;24.42;;
22949;SDS011;11641;51.018;4.474;2023-02-22T03:50:55;94.45;;;21.88;;
22949;SDS011;11641;51.018;4.474;2023-02-22T03:53:22;117.47;;;24.52;;
22949;SDS011;11641;51.018;4.474;2023-02-22T03:55:48;92.15;;;22.92;;
22949;SDS011;11641;51.018;4.474;2023-02-22T03:58:15;110.28;;;24.58;;
22949;SDS011;11641;51.018;4.474;2023-02-22T04:00:45;101.78;;;24.35;;
22949;SDS011;11641;51.018;4.474;2023-02-22T04:03:11;53.85;;;22.75;;
22949;SDS011;11641;51.018;4.474;2023-02-22T04:05:39;91.85;;;23.98;;
22949;SDS011;11641;51.018;4.474;2023-02-22T04:08:05;73.18;;;23.15;;
22949;SDS011;11641;51.018;4.474;2023-02-22T04:10:31;94.95;;;25.17;;
22949;SDS011;11641;51.018;4.474;2023-02-22T04:12:57;119.82;;;25.00;;
22949;SDS011;11641;51.018;4.474;2023-02-22T04:15:23;54.70;;;23.33;;
22949;SDS011;11641;51.018;4.474;2023-02-22T04:17:49;93.55;;;23.98;;
22949;SDS011;11641;51.018;4.474;2023-02-22T04:20:16;61.03;;;22.90;;
22949;SDS011;11641;51.018;4.474;2023-02-22T04:22:44;110.25;;;23.70;;
22949;SDS011;11641;51.018;4.474;2023-02-22T04:25:09;100.93;;;22.40;;
22949;SDS011;11641;51.018;4.474;2023-02-22T04:27:35;139.98;;;23.58;;
22949;SDS011;11641;51.018;4.474;2023-02-22T04:30:01;108.30;;;23.58;;
22949;SDS011;11641;51.018;4.474;2023-02-22T04:32:27;118.20;;;22.90;;
22949;SDS011;11641;51.018;4.474;2023-02-22T04:34:53;83.20;;;22.90;;
22949;SDS011;11641;51.018;4.474;2023-02-22T04:37:18;93.15;;;24.30;;
22949;SDS011;11641;51.018;4.474;2023-02-22T04:39:44;102.15;;;24.27;;
22949;SDS011;11641;51.018;4.474;2023-02-22T04:42:10;96.55;;;22.33;;
22949;SDS011;11641;51.018;4.474;2023-02-22T04:44:35;98.85;;;23.45;;
22949;SDS011;11641;51.018;4.474;2023-02-22T04:47:01;80.20;;;21.48;;
22949;SDS011;11641;51.018;4.474;2023-02-22T04:49:27;49.53;;;21.50;;
22949;SDS011;11641;51.018;4.474;2023-02-22T04:51:53;116.13;;;23.75;;
22949;SDS011;11641;51.018;4.474;2023-02-22T04:54:18;92.72;;;23.05;;
22949;SDS011;11641;51.018;4.474;2023-02-22T04:56:44;81.95;;;22.00;;
22949;SDS011;11641;51.018;4.474;2023-02-22T04:59:10;52.35;;;20.73;;
22949;SDS011;11641;51.018;4.474;2023-02-22T05:01:38;46.35;;;20.90;;
22949;SDS011;11641;51.018;4.474;2023-02-22T05:04:04;42.75;;;19.83;;
22949;SDS011;11641;51.018;4.474;2023-02-22T05:06:31;39.28;;;19.88;;
22949;SDS011;11641;51.018;4.474;2023-02-22T05:08:57;36.03;;;19.60;;
22949;SDS011;11641;51.018;4.474;2023-02-22T05:11:23;36.00;;;18.98;;
22949;SDS011;11641;51.018;4.474;2023-02-22T05:13:48;36.40;;;19.13;;
22949;SDS011;11641;51.018;4.474;2023-02-22T05:16:14;38.00;;;19.38;;
22949;SDS011;11641;51.018;4.474;2023-02-22T05:18:40;34.78;;;18.90;;
22949;SDS011;11641;51.018;4.474;2023-02-22T05:21:06;39.83;;;19.63;;
22949;SDS011;11641;51.018;4.474;2023-02-22T05:23:32;39.58;;;19.05;;
22949;SDS011;11641;51.018;4.474;2023-02-22T05:25:57;39.17;;;20.23;;
22949;SDS011;11641;51.018;4.474;2023-02-22T05:28:23;38.55;;;20.13;;
22949;SDS011;11641;51.018;4.474;2023-02-22T05:30:49;39.53;;;20.27;;
22949;SDS011;11641;51.018;4.474;2023-02-22T05:33:15;42.10;;;19.70;;
22949;SDS011;11641;51.018;4.474;2023-02-22T05:35:43;35.42;;;19.15;;
22949;SDS011;11641;51.018;4.474;2023-02-22T05:38:11;41.05;;;20.30;;
22949;SDS011;11641;51.018;4.474;2023-02-22T05:40:39;38.75;;;20.48;;
22949;SDS011;11641;51.018;4.474;2023-02-22T05:43:05;40.10;;;20.45;;
22949;SDS011;11641;51.018;4.474;2023-02-22T05:45:31;37.83;;;19.55;;
22949;SDS011;11641;51.018;4.474;2023-02-22T05:47:58;38.72;;;19.40;;
22949;SDS011;11641;51.018;4.474;2023-02-22T05:50:24;40.85;;;19.45;;
22949;SDS011;11641;51.018;4.474;2023-02-22T05:52:50;32.80;;;18.52;;
22949;SDS011;11641;51.018;4.474;2023-02-22T05:55:17;32.55;;;17.77;;
22949;SDS011;11641;51.018;4.474;2023-02-22T05:57:44;34.47;;;18.50;;
22949;SDS011;11641;51.018;4.474;2023-02-22T06:00:15;33.92;;;17.50;;
22949;SDS011;11641;51.018;4.474;2023-02-22T06:02:42;34.53;;;17.55;;
22949;SDS011;11641;51.018;4.474;2023-02-22T06:05:08;34.28;;;18.85;;
22949;SDS011;11641;51.018;4.474;2023-02-22T06:07:34;36.33;;;18.40;;
22949;SDS011;11641;51.018;4.474;2023-02-22T06:10:01;32.33;;;18.42;;
22949;SDS011;11641;51.018;4.474;2023-02-22T06:12:27;34.58;;;17.83;;
22949;SDS011;11641;51.018;4.474;2023-02-22T06:14:52;33.80;;;18.42;;
22949;SDS011;11641;51.018;4.474;2023-02-22T06:17:18;32.25;;;18.33;;
22949;SDS011;11641;51.018;4.474;2023-02-22T06:19:43;39.75;;;17.77;;
22949;SDS011;11641;51.018;4.474;2023-02-22T06:22:17;34.50;;;17.77;;
22949;SDS011;11641;51.018;4.474;2023-02-22T06:24:43;27.73;;;15.73;;
22949;SDS011;11641;51.018;4.474;2023-02-22T06:27:09;31.08;;;17.08;;
22949;SDS011;11641;51.018;4.474;2023-02-22T06:29:35;30.15;;;16.85;;
22949;SDS011;11641;51.018;4.474;2023-02-22T06:32:01;30.52;;;16.00;;
22949;SDS011;11641;51.018;4.474;2023-02-22T06:34:27;29.02;;;17.00;;
22949;SDS011;11641;51.018;4.474;2023-02-22T06:36:53;27.65;;;16.10;;
22949;SDS011;11641;51.018;4.474;2023-02-22T06:39:18;32.13;;;17.23;;
22949;SDS011;11641;51.018;4.474;2023-02-22T06:41:45;29.67;;;16.90;;
22949;SDS011;11641;51.018;4.474;2023-02-22T06:44:14;32.03;;;18.02;;
22949;SDS011;11641;51.018;4.474;2023-02-22T06:46:45;29.70;;;17.27;;
22949;SDS011;11641;51.018;4.474;2023-02-22T06:49:13;29.90;;;16.40;;
22949;SDS011;11641;51.018;4.474;2023-02-22T06:51:41;25.83;;;15.45;;
22949;SDS011;11641;51.018;4.474;2023-02-22T06:54:07;29.70;;;15.82;;
22949;SDS011;11641;51.018;4.474;2023-02-22T06:56:33;26.73;;;15.73;;
22949;SDS011;11641;51.018;4.474;2023-02-22T06:58:59;28.42;;;17.27;;
22949;SDS011;11641;51.018;4.474;2023-02-22T07:01:26;28.65;;;15.57;;
22949;SDS011;11641;51.018;4.474;2023-02-22T07:03:52;28.90;;;16.60;;
22949;SDS011;11641;51.018;4.474;2023-02-22T07:06:21;28.77;;;15.48;;
22949;SDS011;11641;51.018;4.474;2023-02-22T07:08:47;28.27;;;16.33;;
22949;SDS011;11641;51.018;4.474;2023-02-22T07:11:14;27.60;;;15.45;;
22949;SDS011;11641;51.018;4.474;2023-02-22T07:13:40;26.23;;;14.88;;
22949;SDS011;11641;51.018;4.474;2023-02-22T07:16:06;24.08;;;14.77;;
22949;SDS011;11641;51.018;4.474;2023-02-22T07:18:32;25.08;;;14.95;;
22949;SDS011;11641;51.018;4.474;2023-02-22T07:20:58;23.90;;;15.65;;
22949;SDS011;11641;51.018;4.474;2023-02-22T07:23:24;26.17;;;15.02;;
22949;SDS011;11641;51.018;4.474;2023-02-22T07:25:51;24.80;;;14.93;;
22949;SDS011;11641;51.018;4.474;2023-02-22T07:28:17;28.20;;;15.00;;
22949;SDS011;11641;51.018;4.474;2023-02-22T07:30:43;22.67;;;13.88;;
22949;SDS011;11641;51.018;4.474;2023-02-22T07:33:09;22.02;;;13.88;;
22949;SDS011;11641;51.018;4.474;2023-02-22T07:35:43;19.77;;;12.68;;
22949;SDS011;11641;51.018;4.474;2023-02-22T07:38:11;21.70;;;13.05;;
22949;SDS011;11641;51.018;4.474;2023-02-22T07:40:40;22.13;;;13.57;;
22949;SDS011;11641;51.018;4.474;2023-02-22T07:45:52;22.30;;;13.38;;
22949;SDS011;11641;51.018;4.474;2023-02-22T07:48:19;20.05;;;13.02;;
22949;SDS011;11641;51.018;4.474;2023-02-22T07:50:47;22.70;;;13.88;;
22949;SDS011;11641;51.018;4.474;2023-02-22T07:53:20;22.33;;;12.98;;
22949;SDS011;11641;51.018;4.474;2023-02-22T07:55:55;19.83;;;12.50;;
22949;SDS011;11641;51.018;4.474;2023-02-22T07:58:25;22.90;;;13.65;;
22949;SDS011;11641;51.018;4.474;2023-02-22T08:00:54;22.20;;;12.60;;
22949;SDS011;11641;51.018;4.474;2023-02-22T08:03:22;20.52;;;11.43;;
22949;SDS011;11641;51.018;4.474;2023-02-22T08:05:50;26.40;;;13.25;;
22949;SDS011;11641;51.018;4.474;2023-02-22T08:08:17;19.92;;;12.65;;
22949;SDS011;11641;51.018;4.474;2023-02-22T08:10:44;16.90;;;11.32;;
22949;SDS011;11641;51.018;4.474;2023-02-22T08:13:10;17.15;;;11.32;;
22949;SDS011;11641;51.018;4.474;2023-02-22T08:15:36;21.38;;;12.00;;
22949;SDS011;11641;51.018;4.474;2023-02-22T08:18:05;17.17;;;11.23;;
22949;SDS011;11641;51.018;4.474;2023-02-22T08:20:36;16.77;;;10.88;;
22949;SDS011;11641;51.018;4.474;2023-02-22T08:23:03;19.75;;;11.63;;
22949;SDS011;11641;51.018;4.474;2023-02-22T08:25:29;17.73;;;11.50;;
22949;SDS011;11641;51.018;4.474;2023-02-22T08:27:58;16.42;;;10.73;;
22949;SDS011;11641;51.018;4.474;2023-02-22T08:30:25;18.23;;;11.70;;
22949;SDS011;11641;51.018;4.474;2023-02-22T08:32:53;17.00;;;10.80;;
22949;SDS011;11641;51.018;4.474;2023-02-22T08:35:19;18.52;;;12.13;;
22949;SDS011;11641;51.018;4.474;2023-02-22T08:37:48;18.67;;;11.20;;
22949;SDS011;11641;51.018;4.474;2023-02-22T08:40:16;15.73;;;10.43;;
22949;SDS011;11641;51.018;4.474;2023-02-22T08:42:45;16.20;;;10.63;;
22949;SDS011;11641;51.018;4.474;2023-02-22T08:45:11;16.45;;;11.07;;
22949;SDS011;11641;51.018;4.474;2023-02-22T08:47:38;15.90;;;10.38;;
22949;SDS011;11641;51.018;4.474;2023-02-22T08:50:04;17.15;;;10.95;;
22949;SDS011;11641;51.018;4.474;2023-02-22T08:52:31;17.13;;;11.38;;
22949;SDS011;11641;51.018;4.474;2023-02-22T08:54:57;18.77;;;10.40;;
22949;SDS011;11641;51.018;4.474;2023-02-22T08:57:25;17.77;;;11.10;;
22949;SDS011;11641;51.018;4.474;2023-02-22T08:59:50;16.25;;;9.60;;
22949;SDS011;11641;51.018;4.474;2023-02-22T09:02:18;16.30;;;10.50;;
22949;SDS011;11641;51.018;4.474;2023-02-22T09:04:47;18.40;;;10.23;;
22949;SDS011;11641;51.018;4.474;2023-02-22T09:07:16;17.00;;;10.20;;
22949;SDS011;11641;51.018;4.474;2023-02-22T09:09:42;17.13;;;10.40;;
22949;SDS011;11641;51.018;4.474;2023-02-22T09:12:08;19.70;;;11.27;;
22949;SDS011;11641;51.018;4.474;2023-02-22T09:14:38;23.42;;;11.20;;
22949;SDS011;11641;51.018;4.474;2023-02-22T09:17:04;18.48;;;10.50;;
22949;SDS011;11641;51.018;4.474;2023-02-22T09:19:29;21.73;;;11.18;;
22949;SDS011;11641;51.018;4.474;2023-02-22T09:21:56;15.10;;;10.57;;
22949;SDS011;11641;51.018;4.474;2023-02-22T09:24:24;19.95;;;10.88;;
22949;SDS011;11641;51.018;4.474;2023-02-22T09:26:50;18.75;;;10.75;;
22949;SDS011;11641;51.018;4.474;2023-02-22T09:29:22;16.33;;;10.05;;
22949;SDS011;11641;51.018;4.474;2023-02-22T09:31:51;18.08;;;10.93;;
22949;SDS011;11641;51.018;4.474;2023-02-22T09:34:19;23.48;;;11.40;;
22949;SDS011;11641;51.018;4.474;2023-02-22T09:36:46;21.65;;;11.52;;
22949;SDS011;11641;51.018;4.474;2023-02-22T09:39:16;20.20;;;11.85;;
22949;SDS011;11641;51.018;4.474;2023-02-22T09:44:24;17.80;;;11.38;;
22949;SDS011;11641;51.018;4.474;2023-02-22T09:47:00;23.08;;;12.18;;
22949;SDS011;11641;51.018;4.474;2023-02-22T09:49:33;19.42;;;12.07;;
22949;SDS011;11641;51.018;4.474;2023-02-22T09:52:07;23.85;;;12.45;;
22949;SDS011;11641;51.018;4.474;2023-02-22T09:57:17;22.05;;;11.93;;
22949;SDS011;11641;51.018;4.474;2023-02-22T10:02:26;21.55;;;11.55;;
22949;SDS011;11641;51.018;4.474;2023-02-22T10:05:07;20.63;;;11.38;;
22949;SDS011;11641;51.018;4.474;2023-02-22T10:10:18;20.02;;;12.43;;
22949;SDS011;11641;51.018;4.474;2023-02-22T10:12:50;20.20;;;12.27;;
22949;SDS011;11641;51.018;4.474;2023-02-22T10:26:37;18.30;;;12.15;;
22949;SDS011;11641;51.018;4.474;2023-02-22T10:29:13;23.52;;;12.27;;
22949;SDS011;11641;51.018;4.474;2023-02-22T10:31:53;24.10;;;12.88;;
22949;SDS011;11641;51.018;4.474;2023-02-22T10:34:24;18.13;;;11.73;;
22949;SDS011;11641;51.018;4.474;2023-02-22T10:36:54;20.73;;;11.82;;
22949;SDS011;11641;51.018;4.474;2023-02-22T10:41:56;27.42;;;11.82;;
22949;SDS011;11641;51.018;4.474;2023-02-22T10:44:30;27.80;;;12.68;;
22949;SDS011;11641;51.018;4.474;2023-02-22T10:46:57;23.55;;;11.80;;
22949;SDS011;11641;51.018;4.474;2023-02-22T10:49:25;19.73;;;12.50;;
22949;SDS011;11641;51.018;4.474;2023-02-22T10:51:59;21.75;;;12.07;;
22949;SDS011;11641;51.018;4.474;2023-02-22T10:54:33;23.17;;;12.27;;
22949;SDS011;11641;51.018;4.474;2023-02-22T10:57:04;25.20;;;13.23;;
22949;SDS011;11641;51.018;4.474;2023-02-22T10:59:34;20.58;;;12.27;;
22949;SDS011;11641;51.018;4.474;2023-02-22T11:02:17;23.83;;;14.77;;
22949;SDS011;11641;51.018;4.474;2023-02-22T11:04:44;21.40;;;12.98;;
22949;SDS011;11641;51.018;4.474;2023-02-22T11:07:21;17.58;;;12.60;;
22949;SDS011;11641;51.018;4.474;2023-02-22T11:10:00;22.00;;;14.13;;
22949;SDS011;11641;51.018;4.474;2023-02-22T11:12:35;18.25;;;12.55;;
22949;SDS011;11641;51.018;4.474;2023-02-22T11:15:25;18.60;;;11.73;;
22949;SDS011;11641;51.018;4.474;2023-02-22T11:17:55;17.85;;;12.50;;
22949;SDS011;11641;51.018;4.474;2023-02-22T11:20:26;20.30;;;13.60;;
22949;SDS011;11641;51.018;4.474;2023-02-22T11:22:59;21.10;;;14.23;;
22949;SDS011;11641;51.018;4.474;2023-02-22T11:25:27;21.67;;;14.85;;
22949;SDS011;11641;51.018;4.474;2023-02-22T11:28:07;25.38;;;14.50;;
22949;SDS011;11641;51.018;4.474;2023-02-22T11:30:39;27.38;;;16.05;;
22949;SDS011;11641;51.018;4.474;2023-02-22T11:33:18;23.58;;;15.57;;
22949;SDS011;11641;51.018;4.474;2023-02-22T11:35:52;20.75;;;16.52;;
22949;SDS011;11641;51.018;4.474;2023-02-22T11:38:23;26.50;;;16.83;;
22949;SDS011;11641;51.018;4.474;2023-02-22T11:43:41;21.90;;;15.25;;
22949;SDS011;11641;51.018;4.474;2023-02-22T11:46:10;24.63;;;15.85;;
22949;SDS011;11641;51.018;4.474;2023-02-22T11:51:36;26.77;;;18.52;;
22949;SDS011;11641;51.018;4.474;2023-02-22T11:56:54;26.33;;;18.95;;
22949;SDS011;11641;51.018;4.474;2023-02-22T11:59:51;21.48;;;15.88;;
22949;SDS011;11641;51.018;4.474;2023-02-22T12:02:44;23.95;;;16.92;;
22949;SDS011;11641;51.018;4.474;2023-02-22T12:08:46;27.67;;;16.83;;
22949;SDS011;11641;51.018;4.474;2023-02-22T12:17:20;27.65;;;19.25;;
22949;SDS011;11641;51.018;4.474;2023-02-22T12:22:29;31.25;;;21.75;;
22949;SDS011;11641;51.018;4.474;2023-02-22T12:25:02;34.45;;;22.63;;
22949;SDS011;11641;51.018;4.474;2023-02-22T12:27:45;29.10;;;20.85;;
22949;SDS011;11641;51.018;4.474;2023-02-22T12:30:30;30.00;;;21.33;;
22949;SDS011;11641;51.018;4.474;2023-02-22T12:33:03;29.88;;;21.30;;
22949;SDS011;11641;51.018;4.474;2023-02-22T12:35:43;35.38;;;21.50;;
22949;SDS011;11641;51.018;4.474;2023-02-22T12:38:19;32.88;;;21.98;;
22949;SDS011;11641;51.018;4.474;2023-02-22T12:40:57;31.08;;;21.60;;
22949;SDS011;11641;51.018;4.474;2023-02-22T12:43:38;36.30;;;22.23;;
22949;SDS011;11641;51.018;4.474;2023-02-22T12:46:19;31.98;;;21.30;;
22949;SDS011;11641;51.018;4.474;2023-02-22T12:55:07;33.70;;;24.02;;
22949;SDS011;11641;51.018;4.474;2023-02-22T13:05:16;33.00;;;22.98;;
22949;SDS011;11641;51.018;4.474;2023-02-22T13:21:07;31.83;;;23.67;;
22949;SDS011;11641;51.018;4.474;2023-02-22T13:26:23;29.70;;;21.48;;
22949;SDS011;11641;51.018;4.474;2023-02-22T13:28:56;30.02;;;23.23;;
22949;SDS011;11641;51.018;4.474;2023-02-22T13:53:11;40.10;;;26.00;;
22949;SDS011;11641;51.018;4.474;2023-02-22T13:55:46;39.25;;;27.33;;
22949;SDS011;11641;51.018;4.474;2023-02-22T13:58:16;39.25;;;28.88;;
22949;SDS011;11641;51.018;4.474;2023-02-22T14:01:00;41.45;;;28.33;;
22949;SDS011;11641;51.018;4.474;2023-02-22T14:03:28;42.15;;;28.33;;
22949;SDS011;11641;51.018;4.474;2023-02-22T14:06:05;39.92;;;28.38;;
22949;SDS011;11641;51.018;4.474;2023-02-22T14:11:02;43.80;;;29.63;;
22949;SDS011;11641;51.018;4.474;2023-02-22T14:21:26;42.53;;;29.65;;
22949;SDS011;11641;51.018;4.474;2023-02-22T14:26:26;47.58;;;31.67;;
22949;SDS011;11641;51.018;4.474;2023-02-22T14:31:34;42.60;;;30.88;;
22949;SDS011;11641;51.018;4.474;2023-02-22T14:34:21;45.60;;;31.70;;
22949;SDS011;11641;51.018;4.474;2023-02-22T14:37:25;50.73;;;33.93;;
22949;SDS011;11641;51.018;4.474;2023-02-22T14:40:03;51.20;;;34.17;;
22949;SDS011;11641;51.018;4.474;2023-02-22T14:42:50;48.33;;;32.22;;
22949;SDS011;11641;51.018;4.474;2023-02-22T14:45:38;45.63;;;31.70;;
22949;SDS011;11641;51.018;4.474;2023-02-22T14:50:45;50.17;;;31.75;;
22949;SDS011;11641;51.018;4.474;2023-02-22T14:55:57;54.70;;;32.63;;
22949;SDS011;11641;51.018;4.474;2023-02-22T14:58:42;56.50;;;34.47;;
22949;SDS011;11641;51.018;4.474;2023-02-22T15:01:33;51.05;;;34.00;;
22949;SDS011;11641;51.018;4.474;2023-02-22T15:06:50;51.42;;;32.60;;
22949;SDS011;11641;51.018;4.474;2023-02-22T15:09:19;48.55;;;32.83;;
22949;SDS011;11641;51.018;4.474;2023-02-22T15:11:50;48.88;;;32.58;;
22949;SDS011;11641;51.018;4.474;2023-02-22T15:14:39;52.58;;;33.10;;
22949;SDS011;11641;51.018;4.474;2023-02-22T15:17:17;49.63;;;31.63;;
22949;SDS011;11641;51.018;4.474;2023-02-22T15:19:45;52.85;;;33.60;;
22949;SDS011;11641;51.018;4.474;2023-02-22T15:22:18;54.15;;;33.05;;
22949;SDS011;11641;51.018;4.474;2023-02-22T15:24:59;50.78;;;32.58;;
22949;SDS011;11641;51.018;4.474;2023-02-22T15:27:30;48.28;;;32.80;;
22949;SDS011;11641;51.018;4.474;2023-02-22T15:30:02;51.13;;;34.10;;
22949;SDS011;11641;51.018;4.474;2023-02-22T15:32:32;49.88;;;34.20;;
22949;SDS011;11641;51.018;4.474;2023-02-22T15:38:03;51.97;;;32.75;;
22949;SDS011;11641;51.018;4.474;2023-02-22T15:40:44;51.43;;;31.03;;
22949;SDS011;11641;51.018;4.474;2023-02-22T15:43:16;51.13;;;28.05;;
22949;SDS011;11641;51.018;4.474;2023-02-22T15:45:44;52.17;;;31.35;;
22949;SDS011;11641;51.018;4.474;2023-02-22T15:48:10;52.90;;;32.25;;
22949;SDS011;11641;51.018;4.474;2023-02-22T15:50:36;52.72;;;31.90;;
22949;SDS011;11641;51.018;4.474;2023-02-22T15:53:04;55.03;;;32.90;;
22949;SDS011;11641;51.018;4.474;2023-02-22T15:55:54;58.45;;;34.78;;
22949;SDS011;11641;51.018;4.474;2023-02-22T15:58:23;59.55;;;34.80;;
22949;SDS011;11641;51.018;4.474;2023-02-22T16:03:49;64.35;;;36.33;;
22949;SDS011;11641;51.018;4.474;2023-02-22T16:06:27;62.03;;;33.20;;
22949;SDS011;11641;51.018;4.474;2023-02-22T16:09:20;63.47;;;31.33;;
22949;SDS011;11641;51.018;4.474;2023-02-22T16:14:51;55.30;;;31.55;;
22949;SDS011;11641;51.018;4.474;2023-02-22T16:19:52;59.85;;;32.13;;
22949;SDS011;11641;51.018;4.474;2023-02-22T16:25:22;57.38;;;31.92;;
22949;SDS011;11641;51.018;4.474;2023-02-22T16:28:02;58.03;;;31.08;;
22949;SDS011;11641;51.018;4.474;2023-02-22T16:30:54;60.13;;;33.88;;
22949;SDS011;11641;51.018;4.474;2023-02-22T16:33:21;61.60;;;34.15;;
22949;SDS011;11641;51.018;4.474;2023-02-22T16:35:47;60.88;;;33.63;;
22949;SDS011;11641;51.018;4.474;2023-02-22T16:38:16;54.55;;;31.27;;
22949;SDS011;11641;51.018;4.474;2023-02-22T16:40:46;57.28;;;31.98;;
22949;SDS011;11641;51.018;4.474;2023-02-22T16:43:17;56.33;;;31.10;;
22949;SDS011;11641;51.018;4.474;2023-02-22T16:45:45;62.45;;;32.25;;
22949;SDS011;11641;51.018;4.474;2023-02-22T16:48:23;57.05;;;32.10;;
22949;SDS011;11641;51.018;4.474;2023-02-22T16:50:50;63.63;;;32.78;;
22949;SDS011;11641;51.018;4.474;2023-02-22T16:53:19;60.45;;;32.15;;
22949;SDS011;11641;51.018;4.474;2023-02-22T16:55:46;57.13;;;33.30;;
22949;SDS011;11641;51.018;4.474;2023-02-22T16:58:13;64.57;;;34.72;;
22949;SDS011;11641;51.018;4.474;2023-02-22T17:00:41;61.28;;;33.58;;
22949;SDS011;11641;51.018;4.474;2023-02-22T17:03:13;61.92;;;34.35;;
22949;SDS011;11641;51.018;4.474;2023-02-22T17:05:41;67.00;;;35.67;;
22949;SDS011;11641;51.018;4.474;2023-02-22T17:08:07;63.03;;;33.67;;
22949;SDS011;11641;51.018;4.474;2023-02-22T17:10:33;58.03;;;34.50;;
22949;SDS011;11641;51.018;4.474;2023-02-22T17:12:59;62.55;;;33.78;;
22949;SDS011;11641;51.018;4.474;2023-02-22T17:15:30;68.30;;;36.25;;
22949;SDS011;11641;51.018;4.474;2023-02-22T17:18:01;69.75;;;34.30;;
22949;SDS011;11641;51.018;4.474;2023-02-22T17:20:35;62.10;;;34.20;;
22949;SDS011;11641;51.018;4.474;2023-02-22T17:23:05;64.85;;;34.00;;
22949;SDS011;11641;51.018;4.474;2023-02-22T17:25:38;63.67;;;34.45;;
22949;SDS011;11641;51.018;4.474;2023-02-22T17:28:08;68.25;;;34.53;;
22949;SDS011;11641;51.018;4.474;2023-02-22T17:30:35;61.72;;;36.30;;
22949;SDS011;11641;51.018;4.474;2023-02-22T17:33:04;66.68;;;34.85;;